Terminal Aerodrome Forecast
Issued by NWS Caribou, ME

Home | Current Version | Previous Version | Text Only | Print | Product List | Glossary On
Versions: 1 2 3 4 5 6 7 8 9 10 11 12 13 14 15 16 17 18 19
611
FTUS41 KCAR 022337
TAFBGR
TAF
KBGR 022337Z 0300/0324 VRB03KT P6SM VCSH OVC035
     FM030900 33007KT P6SM VCSH OVC025
     FM031200 34008KT P6SM OVC020
     FM031500 35009KT P6SM OVC028
     FM032000 33007KT P6SM BKN035=

USA.gov is the U.S. government's official web portal to all federal, state and local government web resources and services.